Time;durP1;ratioP1;P1;durP2;ratioP2;P2;SDS_P1;SDS_P2;PMS_P1;PMS_P2;Temp;Humidity;BMP_temperature;BMP_pressure;BME280_temperature;BME280_humidity;BME280_pressure;Samples;Min_cycle;Max_cycle;Signal;HPM_P1;HPM_P2
2023/04/29 00:01:05;;;;;;;49.97;34.38;;;9.90;99.90;;;;;;4842793;29;20428;-90
2023/04/29 00:03:33;;;;;;;45.28;33.92;;;9.40;99.90;;;;;;4844877;29;20520;-89
2023/04/29 00:06:00;;;;;;;44.33;32.92;;;9.60;99.90;;;;;;4844231;29;20511;-91
2023/04/29 00:08:26;;;;;;;46.80;32.03;;;9.80;99.90;;;;;;4843702;29;20425;-90
2023/04/29 00:10:52;;;;;;;41.15;31.15;;;9.50;99.90;;;;;;4845187;29;20503;-90
2023/04/29 00:13:17;;;;;;;43.92;32.95;;;9.50;99.90;;;;;;4842734;29;20520;-91
2023/04/29 00:15:43;;;;;;;45.15;31.83;;;9.70;99.90;;;;;;4845060;29;20440;-91
2023/04/29 00:18:09;;;;;;;46.47;33.50;;;9.60;99.90;;;;;;4842532;29;20436;-90
2023/04/29 00:20:39;;;;;;;45.80;33.67;;;9.50;99.90;;;;;;4844947;29;20428;-91
2023/04/29 00:23:05;;;;;;;44.65;33.03;;;9.50;99.90;;;;;;4843443;29;20420;-91
2023/04/29 00:25:31;;;;;;;44.03;32.63;;;9.70;99.90;;;;;;4843985;29;20436;-89
2023/04/29 00:28:00;;;;;;;44.27;33.40;;;9.50;99.90;;;;;;4844908;29;20463;-89
2023/04/29 00:30:27;;;;;;;42.95;32.38;;;9.50;99.90;;;;;;4842689;29;20483;-90
2023/04/29 00:32:54;;;;;;;41.65;32.47;;;9.50;99.90;;;;;;4844019;29;20421;-91
2023/04/29 00:35:20;;;;;;;43.50;32.90;;;9.50;99.90;;;;;;4841953;29;20803;-91
2023/04/29 00:37:46;;;;;;;44.95;33.28;;;9.50;99.90;;;;;;4844750;29;20941;-90
2023/04/29 00:40:13;;;;;;;42.60;32.28;;;9.40;99.90;;;;;;4842573;29;20425;-91
2023/04/29 00:42:40;;;;;;;46.57;34.80;;;9.40;99.90;;;;;;4844009;29;20608;-90
2023/04/29 00:45:07;;;;;;;44.63;34.05;;;9.40;99.90;;;;;;4843728;29;20439;-90
2023/04/29 00:47:33;;;;;;;47.75;34.20;;;9.40;99.90;;;;;;4842653;29;20424;-90
2023/04/29 00:49:59;;;;;;;50.08;35.60;;;9.70;99.90;;;;;;4844172;29;20448;-92
2023/04/29 00:52:26;;;;;;;45.33;33.15;;;9.50;99.90;;;;;;4841676;29;20432;-88
2023/04/29 00:54:51;;;;;;;47.03;34.60;;;9.50;99.90;;;;;;4844657;29;20427;-92
2023/04/29 00:57:18;;;;;;;45.47;34.45;;;9.60;99.90;;;;;;4842068;29;20425;-90
2023/04/29 00:59:45;;;;;;;45.87;34.67;;;9.70;99.90;;;;;;4844015;29;20910;-90
2023/04/29 01:02:11;;;;;;;44.25;33.83;;;9.50;99.90;;;;;;4842763;29;21253;-90
2023/04/29 01:04:37;;;;;;;52.97;37.10;;;9.30;99.90;;;;;;4842999;29;20531;-90
2023/04/29 01:07:13;;;;;;;49.13;35.15;;;9.30;99.90;;;;;;4844155;29;20511;-89
2023/04/29 01:10:02;;;;;;;42.92;32.95;;;9.30;99.90;;;;;;4841614;29;20449;-93
2023/04/29 01:12:44;;;;;;;43.63;33.55;;;9.30;99.90;;;;;;4844090;29;20428;-89
2023/04/29 01:15:25;;;;;;;45.90;34.03;;;9.30;99.90;;;;;;4842388;29;20473;-90
2023/04/29 01:18:11;;;;;;;44.75;33.70;;;9.30;99.90;;;;;;4841979;29;20472;-89
2023/04/29 01:20:37;;;;;;;42.83;31.55;;;9.30;99.90;;;;;;4843843;29;20440;-90
2023/04/29 01:23:03;;;;;;;41.17;30.40;;;9.30;99.90;;;;;;4841433;29;20513;-90
2023/04/29 01:25:29;;;;;;;44.00;31.65;;;9.60;99.90;;;;;;4843700;29;21067;-91
2023/04/29 01:28:23;;;;;;;38.40;29.70;;;9.30;99.90;;;;;;4841780;29;20519;-90
2023/04/29 01:31:35;;;;;;;39.53;29.20;;;9.20;99.90;;;;;;4841993;29;20464;-90
2023/04/29 01:34:08;;;;;;;41.60;30.80;;;9.20;99.90;;;;;;4824475;29;20639;-91
2023/04/29 01:37:01;;;;;;;41.00;30.55;;;9.20;99.90;;;;;;4841406;29;20515;-90
2023/04/29 01:39:45;;;;;;;40.90;30.23;;;9.20;99.90;;;;;;4842052;29;20878;-91
2023/04/29 01:42:43;;;;;;;43.08;30.48;;;9.20;99.90;;;;;;4843495;29;20452;-90
2023/04/29 01:45:10;;;;;;;41.97;29.05;;;9.20;99.90;;;;;;4841111;29;20448;-89
2023/04/29 01:47:36;;;;;;;40.08;29.67;;;9.40;99.90;;;;;;4842628;29;20420;-90
2023/04/29 01:50:03;;;;;;;41.65;29.98;;;9.50;99.90;;;;;;4842787;29;20460;-90
2023/04/29 01:52:28;;;;;;;48.80;31.98;;;9.20;99.90;;;;;;4841285;29;20445;-89
2023/04/29 01:54:54;;;;;;;41.75;30.10;;;9.20;99.90;;;;;;4843294;29;20421;-89
2023/04/29 01:57:20;;;;;;;42.60;29.90;;;9.10;99.90;;;;;;4840698;29;20481;-89
2023/04/29 01:59:45;;;;;;;48.33;31.08;;;9.10;99.90;;;;;;4852900;29;20420;-89
2023/04/29 02:02:13;;;;;;;48.40;31.70;;;9.10;99.90;;;;;;4841260;29;20832;-91
2023/04/29 02:04:39;;;;;;;42.97;30.70;;;9.10;99.90;;;;;;4842866;29;20480;-88
2023/04/29 02:07:06;;;;;;;53.65;33.53;;;9.10;99.90;;;;;;4841629;29;22140;-91
2023/04/29 02:09:32;;;;;;;51.93;34.83;;;8.90;99.90;;;;;;4842172;29;20476;-90
2023/04/29 02:11:57;;;;;;;56.37;37.00;;;9.10;99.90;;;;;;4843027;29;20443;-90
2023/04/29 02:14:23;;;;;;;56.30;34.75;;;9.10;99.90;;;;;;4841105;29;20985;-91
2023/04/29 02:16:48;;;;;;;51.27;34.47;;;9.10;99.90;;;;;;4843013;29;20490;-89
2023/04/29 02:19:14;;;;;;;53.38;35.97;;;9.10;99.90;;;;;;4840714;29;20914;-89
2023/04/29 02:21:39;;;;;;;52.50;36.20;;;9.10;99.90;;;;;;4842028;29;20470;-91
2023/04/29 02:24:05;;;;;;;52.43;34.87;;;9.10;99.90;;;;;;4840440;29;20444;-89
2023/04/29 02:26:33;;;;;;;50.55;34.97;;;9.20;99.90;;;;;;4841877;29;20506;-90
2023/04/29 02:28:59;;;;;;;53.70;34.97;;;9.20;99.90;;;;;;4841507;29;20440;-90
2023/04/29 02:31:24;;;;;;;52.03;33.47;;;9.30;99.90;;;;;;4840611;29;20488;-91
2023/04/29 02:33:50;;;;;;;46.47;31.60;;;9.40;99.90;;;;;;4843056;29;20463;-90
2023/04/29 02:36:17;;;;;;;49.73;31.50;;;9.10;99.90;;;;;;4840249;29;21107;-89
2023/04/29 02:38:42;;;;;;;50.20;31.25;;;9.10;99.90;;;;;;4842652;29;20480;-89
2023/04/29 02:41:08;;;;;;;46.63;30.77;;;9.00;99.90;;;;;;4840559;29;20420;-90
2023/04/29 02:43:34;;;;;;;49.17;30.27;;;9.50;99.90;;;;;;4842815;29;20942;-91
2023/04/29 02:46:00;;;;;;;41.92;27.77;;;9.10;99.90;;;;;;4841296;29;20418;-90
2023/04/29 02:48:25;;;;;;;44.13;27.90;;;9.00;99.90;;;;;;4841702;29;20485;-89
2023/04/29 02:50:51;;;;;;;42.65;28.30;;;9.00;99.90;;;;;;4841855;29;20966;-90
2023/04/29 02:53:17;;;;;;;35.67;24.80;;;9.00;99.90;;;;;;4855987;29;20949;-90
2023/04/29 02:55:43;;;;;;;40.13;24.70;;;9.00;99.90;;;;;;4842493;29;20416;-91
2023/04/29 02:58:09;;;;;;;33.57;23.53;;;9.00;99.90;;;;;;4839678;29;20899;-90
2023/04/29 03:00:35;;;;;;;35.20;24.52;;;9.00;99.90;;;;;;4842491;29;20456;-90
2023/04/29 03:03:00;;;;;;;34.40;23.45;;;9.00;99.90;;;;;;4840119;29;20440;-89
2023/04/29 03:05:26;;;;;;;35.55;23.42;;;9.00;99.90;;;;;;4842336;29;20430;-88
2023/04/29 03:07:52;;;;;;;35.08;24.55;;;9.00;99.90;;;;;;4841573;29;20436;-89
2023/04/29 03:10:18;;;;;;;31.97;22.83;;;9.10;99.90;;;;;;4840596;29;20457;-91
2023/04/29 03:12:43;;;;;;;31.55;23.30;;;9.10;99.90;;;;;;4842767;29;20443;-90
2023/04/29 03:15:10;;;;;;;34.83;24.27;;;9.10;99.90;;;;;;4839696;29;20442;-90
2023/04/29 03:17:36;;;;;;;31.00;22.67;;;9.10;99.90;;;;;;4842440;29;20421;-90
2023/04/29 03:20:02;;;;;;;33.55;24.83;;;9.10;99.90;;;;;;4839893;29;20439;-89
2023/04/29 03:22:28;;;;;;;34.60;24.25;;;9.10;99.90;;;;;;4842096;29;20488;-90
2023/04/29 03:24:54;;;;;;;34.92;23.90;;;9.00;99.90;;;;;;4841005;29;20993;-90
2023/04/29 03:27:19;;;;;;;33.58;23.60;;;9.00;99.90;;;;;;4841453;29;20962;-89
2023/04/29 03:29:45;;;;;;;33.87;24.27;;;9.10;99.90;;;;;;4842076;29;20539;-89
2023/04/29 03:32:11;;;;;;;31.87;22.50;;;9.00;99.90;;;;;;4855353;29;20424;-89
2023/04/29 03:34:36;;;;;;;32.95;23.08;;;9.00;99.90;;;;;;4841725;29;20431;-90
2023/04/29 03:37:02;;;;;;;33.23;23.10;;;9.10;99.90;;;;;;4839606;29;20412;-90
2023/04/29 03:39:31;;;;;;;30.70;21.67;;;9.10;99.90;;;;;;4842438;29;20918;-89
2023/04/29 03:42:01;;;;;;;29.42;21.42;;;9.00;99.90;;;;;;4839884;29;20467;-90
2023/04/29 03:44:28;;;;;;;31.35;20.80;;;9.00;99.90;;;;;;4841951;29;20429;-91
2023/04/29 03:46:53;;;;;;;30.83;21.25;;;9.00;99.90;;;;;;4841044;29;20425;-90
2023/04/29 03:49:19;;;;;;;32.88;22.00;;;9.00;99.90;;;;;;4840045;29;20838;-90
2023/04/29 03:51:45;;;;;;;30.08;20.08;;;9.00;99.90;;;;;;4841872;29;21000;-90
2023/04/29 03:54:12;;;;;;;27.90;20.30;;;9.00;99.90;;;;;;4839445;29;20429;-89
2023/04/29 03:56:37;;;;;;;33.00;21.67;;;9.00;99.90;;;;;;4842128;29;21090;-91
2023/04/29 03:59:03;;;;;;;27.52;20.40;;;9.50;99.90;;;;;;4839954;29;20421;-90
2023/04/29 04:01:29;;;;;;;29.35;20.92;;;9.00;99.90;;;;;;4841799;29;20432;-89
2023/04/29 04:03:55;;;;;;;30.15;19.70;;;9.10;99.90;;;;;;4840668;29;20472;-89
2023/04/29 04:06:21;;;;;;;29.63;19.70;;;9.30;99.90;;;;;;4840868;29;20436;-91
2023/04/29 04:08:46;;;;;;;27.65;18.88;;;9.10;99.90;;;;;;4844080;29;20488;-90
2023/04/29 04:11:14;;;;;;;27.03;17.67;;;9.20;99.90;;;;;;4842862;29;20435;-90
2023/04/29 04:13:42;;;;;;;25.57;16.90;;;9.00;99.90;;;;;;4845413;29;20431;-89
2023/04/29 04:16:09;;;;;;;26.92;17.25;;;9.00;99.90;;;;;;4843326;29;20795;-88
2023/04/29 04:18:38;;;;;;;24.73;16.17;;;9.00;99.90;;;;;;4845133;29;20456;-91
2023/04/29 04:21:08;;;;;;;25.58;15.90;;;9.00;99.90;;;;;;4843264;29;20508;-90
2023/04/29 04:23:34;;;;;;;26.25;15.13;;;9.00;99.90;;;;;;4844708;29;20918;-90
2023/04/29 04:25:59;;;;;;;22.15;13.98;;;9.00;99.90;;;;;;4844988;29;20436;-91
2023/04/29 04:28:25;;;;;;;22.63;14.47;;;9.00;99.90;;;;;;4842717;29;20435;-91
2023/04/29 04:30:51;;;;;;;21.07;13.77;;;9.40;99.90;;;;;;4845212;29;20456;-90
2023/04/29 04:33:17;;;;;;;22.17;13.38;;;9.10;99.90;;;;;;4842632;29;20469;-91
2023/04/29 04:35:43;;;;;;;23.10;13.93;;;9.00;99.90;;;;;;4845037;29;20428;-90
2023/04/29 04:38:10;;;;;;;20.42;12.40;;;9.00;99.90;;;;;;4842687;29;20420;-90
2023/04/29 04:40:36;;;;;;;21.50;13.05;;;9.00;99.90;;;;;;4844543;29;20428;-91
2023/04/29 04:43:02;;;;;;;21.35;13.57;;;9.10;99.90;;;;;;4844109;29;20424;-91
2023/04/29 04:45:29;;;;;;;21.20;14.07;;;9.00;99.90;;;;;;4843727;29;20441;-90
2023/04/29 04:47:54;;;;;;;21.33;13.48;;;9.00;99.90;;;;;;4844640;29;20431;-90
2023/04/29 04:50:20;;;;;;;20.63;12.82;;;9.00;99.90;;;;;;4842401;29;20441;-91
2023/04/29 04:52:45;;;;;;;20.97;12.87;;;9.00;99.90;;;;;;4844620;29;20515;-92
2023/04/29 04:55:11;;;;;;;21.85;12.75;;;9.00;99.90;;;;;;4842285;29;20425;-91
2023/04/29 04:57:37;;;;;;;20.90;13.23;;;9.00;99.90;;;;;;4844771;29;20899;-91
2023/04/29 05:00:04;;;;;;;20.27;13.20;;;9.10;99.90;;;;;;4842740;29;20934;-91
2023/04/29 05:02:29;;;;;;;21.55;12.98;;;9.00;99.90;;;;;;4844129;29;20420;-90
2023/04/29 05:04:55;;;;;;;21.60;13.32;;;9.10;99.90;;;;;;4844176;29;20432;-90
2023/04/29 05:07:21;;;;;;;20.17;12.27;;;9.30;99.90;;;;;;4842527;29;20416;-91
2023/04/29 05:09:47;;;;;;;20.20;12.65;;;9.10;99.90;;;;;;4844597;29;20456;-90
2023/04/29 05:12:12;;;;;;;21.43;13.07;;;9.30;99.90;;;;;;4841895;29;20428;-89
2023/04/29 05:14:38;;;;;;;21.77;13.50;;;9.30;99.90;;;;;;4847809;29;20529;-90
2023/04/29 05:17:04;;;;;;;18.75;12.80;;;9.10;99.90;;;;;;4841035;29;20429;-91
2023/04/29 05:19:30;;;;;;;19.03;12.07;;;9.10;99.90;;;;;;4845175;29;20441;-90
2023/04/29 05:21:55;;;;;;;16.75;11.98;;;9.10;99.90;;;;;;4819975;29;20896;-89
2023/04/29 05:24:21;;;;;;;20.67;12.05;;;9.40;99.90;;;;;;4827698;29;20526;-89
2023/04/29 05:26:50;;;;;;;19.20;12.50;;;9.10;99.90;;;;;;4843636;29;20994;-90
2023/04/29 05:29:16;;;;;;;21.65;12.55;;;9.00;99.90;;;;;;4840955;29;20941;-90
2023/04/29 05:31:42;;;;;;;19.23;12.45;;;9.10;99.90;;;;;;4844964;29;20429;-90
2023/04/29 05:34:07;;;;;;;18.87;12.40;;;8.90;99.90;;;;;;4841648;29;21017;-89
2023/04/29 05:36:33;;;;;;;22.63;13.53;;;8.80;99.90;;;;;;4843726;29;20527;-89
2023/04/29 05:38:59;;;;;;;18.77;12.73;;;8.80;99.90;;;;;;4841066;29;20439;-89
2023/04/29 05:41:25;;;;;;;17.27;12.97;;;8.80;99.90;;;;;;4843476;29;20464;-89
2023/04/29 05:43:50;;;;;;;19.93;12.90;;;8.90;99.90;;;;;;4842501;29;20421;-91
2023/04/29 05:46:16;;;;;;;17.53;12.27;;;9.00;99.90;;;;;;4841573;29;20987;-88
2023/04/29 05:48:42;;;;;;;18.27;12.52;;;9.20;99.90;;;;;;4843570;29;20963;-91
2023/04/29 05:51:08;;;;;;;17.80;13.05;;;9.30;99.90;;;;;;4853368;29;20422;-90
2023/04/29 05:53:35;;;;;;;20.90;12.65;;;9.40;99.90;;;;;;4861826;29;20415;-90
2023/04/29 05:56:03;;;;;;;18.27;11.90;;;9.50;99.90;;;;;;4853907;29;20436;-89
2023/04/29 05:58:29;;;;;;;16.77;11.93;;;9.90;99.90;;;;;;4850561;29;20929;-90
2023/04/29 06:00:55;;;;;;;18.02;10.98;;;9.80;99.90;;;;;;4843708;29;20429;-91
2023/04/29 06:03:21;;;;;;;19.63;10.68;;;10.10;99.90;;;;;;4855565;29;20432;-88
2023/04/29 06:05:46;;;;;;;14.67;10.23;;;10.20;99.90;;;;;;4854843;29;20498;-91
2023/04/29 06:08:12;;;;;;;15.40;10.53;;;10.10;99.90;;;;;;4859126;29;20429;-90
2023/04/29 06:10:38;;;;;;;16.85;10.60;;;10.40;99.90;;;;;;4861367;29;20461;-89
2023/04/29 06:13:03;;;;;;;15.90;10.02;;;10.40;99.90;;;;;;4858526;29;20418;-91
2023/04/29 06:15:29;;;;;;;12.97;9.77;;;10.50;99.90;;;;;;4861245;29;20988;-89
2023/04/29 06:17:55;;;;;;;14.73;9.32;;;10.60;99.90;;;;;;4859000;29;20415;-90
2023/04/29 06:20:20;;;;;;;15.52;9.52;;;10.60;99.90;;;;;;4876454;29;20466;-90
2023/04/29 06:22:46;;;;;;;15.27;9.40;;;11.10;99.90;;;;;;4860279;29;20422;-90
2023/04/29 06:25:13;;;;;;;13.30;8.45;;;10.70;99.90;;;;;;4859423;29;20506;-89
2023/04/29 06:27:38;;;;;;;15.00;9.07;;;11.20;99.90;;;;;;4861228;29;20814;-88
2023/04/29 06:30:05;;;;;;;13.20;8.23;;;10.80;99.90;;;;;;4858334;29;20453;-91
2023/04/29 06:32:31;;;;;;;13.90;8.38;;;10.90;99.90;;;;;;4860435;29;20435;-89
2023/04/29 06:34:56;;;;;;;12.68;8.60;;;11.10;99.90;;;;;;4858606;29;20441;-90
2023/04/29 06:37:22;;;;;;;14.40;9.07;;;11.20;99.90;;;;;;4860559;29;20477;-89
2023/04/29 06:39:48;;;;;;;14.82;8.80;;;11.30;99.90;;;;;;4858099;29;21136;-89
2023/04/29 06:42:14;;;;;;;14.80;8.57;;;11.10;99.90;;;;;;4841560;29;20484;-91
2023/04/29 06:44:39;;;;;;;13.63;8.95;;;11.20;99.90;;;;;;4842337;29;20423;-90
2023/04/29 06:47:05;;;;;;;17.17;9.57;;;11.20;99.90;;;;;;4858314;29;20434;-89
2023/04/29 06:49:31;;;;;;;13.43;8.60;;;11.70;99.90;;;;;;4860855;29;20943;-90
2023/04/29 06:51:56;;;;;;;16.88;9.10;;;11.40;99.90;;;;;;4857806;29;20563;-91
2023/04/29 06:54:22;;;;;;;13.30;8.20;;;11.40;99.90;;;;;;4861001;29;20423;-91
2023/04/29 06:56:47;;;;;;;14.40;8.93;;;11.50;99.90;;;;;;4843231;29;20447;-90
2023/04/29 06:59:14;;;;;;;15.00;8.10;;;11.80;99.90;;;;;;4842248;29;20425;-92
2023/04/29 07:01:40;;;;;;;14.52;8.20;;;11.80;99.90;;;;;;4841220;29;20507;-90
2023/04/29 07:04:05;;;;;;;16.13;7.88;;;11.70;99.90;;;;;;4840866;29;20879;-91
2023/04/29 07:06:31;;;;;;;11.60;6.67;;;11.80;99.90;;;;;;4841957;29;20752;-90
2023/04/29 07:08:57;;;;;;;11.10;6.65;;;11.70;99.90;;;;;;4839641;29;20435;-90
2023/04/29 07:11:23;;;;;;;12.80;6.88;;;11.80;99.90;;;;;;4842006;29;20929;-89
2023/04/29 07:13:52;;;;;;;11.48;6.70;;;11.80;99.90;;;;;;4839587;29;20424;-92
2023/04/29 07:16:20;;;;;;;12.63;6.68;;;12.10;99.90;;;;;;4841989;29;20413;-90
2023/04/29 07:18:49;;;;;;;11.15;6.85;;;12.40;99.90;;;;;;4840260;29;20416;-91
2023/04/29 07:21:14;;;;;;;12.60;7.30;;;12.10;99.90;;;;;;4841425;29;20790;-89
2023/04/29 07:23:40;;;;;;;12.13;6.70;;;12.10;99.90;;;;;;4841632;29;20435;-90
2023/04/29 07:26:11;;;;;;;11.73;6.93;;;12.30;99.90;;;;;;4839898;29;20428;-90
2023/04/29 07:28:36;;;;;;;10.85;6.68;;;12.00;99.90;;;;;;4841696;29;20461;-92
2023/04/29 07:31:02;;;;;;;12.23;6.53;;;12.10;99.90;;;;;;4839304;29;20847;-91
2023/04/29 07:33:27;;;;;;;12.07;6.82;;;12.20;99.90;;;;;;4841828;29;20432;-90
2023/04/29 07:35:53;;;;;;;11.38;6.70;;;12.30;99.90;;;;;;4839858;29;20420;-90
2023/04/29 07:38:20;;;;;;;14.83;6.40;;;12.40;99.90;;;;;;4841781;29;20450;-90
2023/04/29 07:40:46;;;;;;;11.43;5.80;;;12.50;99.90;;;;;;4841031;29;20432;-90
2023/04/29 07:43:11;;;;;;;13.00;6.30;;;12.60;99.90;;;;;;4841805;29;20475;-90
2023/04/29 07:45:38;;;;;;;10.60;5.50;;;12.40;99.90;;;;;;4851970;29;20463;-90
2023/04/29 07:48:05;;;;;;;10.17;5.27;;;12.50;99.90;;;;;;4858230;29;20580;-91
2023/04/29 07:50:33;;;;;;;9.52;5.65;;;12.70;99.90;;;;;;4860665;29;20903;-90
2023/04/29 07:53:00;;;;;;;11.80;5.53;;;12.90;99.90;;;;;;4853372;29;20428;-91
2023/04/29 07:55:28;;;;;;;12.60;5.50;;;12.90;99.90;;;;;;4860626;29;20428;-92
2023/04/29 07:57:55;;;;;;;9.50;5.47;;;12.80;99.90;;;;;;4854359;29;20441;-91
2023/04/29 08:00:22;;;;;;;10.27;5.00;;;13.10;99.90;;;;;;4860726;29;20424;-92
2023/04/29 08:02:55;;;;;;;8.93;5.07;;;13.00;99.90;;;;;;4863727;29;20427;-92
2023/04/29 08:05:21;;;;;;;8.88;4.35;;;13.30;99.90;;;;;;4861170;29;20427;-91
2023/04/29 08:07:47;;;;;;;8.45;4.45;;;13.20;99.90;;;;;;4863729;29;20784;-90
2023/04/29 08:10:14;;;;;;;7.45;4.15;;;13.30;99.90;;;;;;4860992;29;20439;-90
2023/04/29 08:12:40;;;;;;;6.88;3.90;;;13.30;99.90;;;;;;4863571;29;21039;-90
2023/04/29 08:15:06;;;;;;;6.18;3.83;;;13.40;95.50;;;;;;4861837;29;20425;-90
2023/04/29 08:17:32;;;;;;;8.00;4.35;;;13.40;92.00;;;;;;4862659;29;20563;-93
2023/04/29 08:19:58;;;;;;;5.85;4.43;;;13.40;99.90;;;;;;4862916;29;20477;-89
2023/04/29 08:22:23;;;;;;;9.35;5.43;;;13.70;99.90;;;;;;4861229;29;20434;-90
2023/04/29 08:24:49;;;;;;;6.73;4.50;;;13.70;99.90;;;;;;4863361;29;20522;-92
2023/04/29 08:27:15;;;;;;;8.60;4.97;;;13.80;97.50;;;;;;4846318;29;20481;-91
2023/04/29 08:29:41;;;;;;;8.30;5.10;;;13.90;81.10;;;;;;4844417;29;20488;-89
2023/04/29 08:32:07;;;;;;;8.38;4.93;;;13.80;86.70;;;;;;4842383;29;20463;-89
2023/04/29 08:34:35;;;;;;;9.32;5.40;;;13.60;93.50;;;;;;4844614;29;20452;-88
2023/04/29 08:37:03;;;;;;;9.55;5.07;;;13.80;99.90;;;;;;4843093;29;20506;-90
2023/04/29 08:39:30;;;;;;;8.75;4.63;;;13.80;82.10;;;;;;4843159;29;20432;-89
2023/04/29 08:41:56;;;;;;;8.95;4.95;;;13.90;96.50;;;;;;4855217;29;20425;-90
2023/04/29 08:44:22;;;;;;;8.82;5.07;;;14.00;96.60;;;;;;4860666;29;20408;-91
2023/04/29 08:46:49;;;;;;;9.38;5.40;;;13.70;90.20;;;;;;4862609;29;20514;-90
2023/04/29 08:49:15;;;;;;;6.38;4.75;;;13.70;99.90;;;;;;4860218;29;20449;-89
2023/04/29 08:51:41;;;;;;;7.63;4.95;;;13.70;80.90;;;;;;4854231;29;20433;-92
2023/04/29 08:54:06;;;;;;;10.57;6.60;;;13.70;98.20;;;;;;4841871;29;20428;-92
2023/04/29 08:56:33;;;;;;;8.02;5.43;;;13.80;95.40;;;;;;4836242;29;20804;-90
2023/04/29 08:59:01;;;;;;;7.50;5.63;;;13.90;86.20;;;;;;4825438;29;20433;-89
2023/04/29 09:01:28;;;;;;;8.43;5.27;;;13.90;76.90;;;;;;4829900;29;20420;-90
2023/04/29 09:04:20;;;;;;;8.60;5.97;;;13.60;72.30;;;;;;4844218;29;20794;-89
2023/04/29 09:06:47;;;;;;;9.10;5.95;;;13.90;99.90;;;;;;4832352;29;20427;-90
2023/04/29 09:09:14;;;;;;;9.13;5.70;;;14.20;86.70;;;;;;4843649;29;20537;-90
2023/04/29 09:11:40;;;;;;;8.82;6.00;;;14.20;99.90;;;;;;4842621;29;20431;-91
2023/04/29 09:14:08;;;;;;;8.17;5.23;;;14.50;98.40;;;;;;4842562;29;20431;-89
2023/04/29 09:16:36;;;;;;;8.68;5.82;;;14.30;95.70;;;;;;4843702;29;20458;-92
2023/04/29 09:19:02;;;;;;;11.20;5.70;;;14.50;98.80;;;;;;4841419;29;20428;-90
2023/04/29 09:21:31;;;;;;;11.00;6.28;;;14.90;99.60;;;;;;4838709;29;20438;-91
2023/04/29 09:23:59;;;;;;;10.98;6.22;;;14.80;86.40;;;;;;4822960;29;20426;-91
2023/04/29 09:26:26;;;;;;;7.55;5.82;;;14.90;91.80;;;;;;4825675;29;20529;-92
2023/04/29 09:29:17;;;;;;;7.93;6.03;;;14.90;94.10;;;;;;4824103;29;20818;-92
2023/04/29 09:31:43;;;;;;;10.18;6.20;;;15.00;85.10;;;;;;4823036;29;20470;-91
2023/04/29 09:34:13;;;;;;;7.60;5.53;;;15.30;92.20;;;;;;4824916;29;20433;-91
2023/04/29 09:36:45;;;;;;;7.60;5.10;;;15.40;96.10;;;;;;4828095;29;20476;-91
2023/04/29 09:39:19;;;;;;;8.40;5.50;;;15.30;80.00;;;;;;4841609;29;20485;-88
2023/04/29 09:41:53;;;;;;;9.48;5.72;;;15.30;99.40;;;;;;4833727;29;20434;-89
2023/04/29 09:44:22;;;;;;;8.00;5.50;;;15.30;78.50;;;;;;4822670;29;20432;-90
2023/04/29 09:47:06;;;;;;;8.10;5.10;;;15.60;88.80;;;;;;4844635;29;20425;-88
2023/04/29 09:49:40;;;;;;;8.48;5.15;;;15.10;64.70;;;;;;4854149;29;20538;-87
2023/04/29 09:52:11;;;;;;;9.13;5.10;;;15.00;69.50;;;;;;4853382;29;20461;-89
2023/04/29 09:54:38;;;;;;;9.73;5.22;;;15.00;81.60;;;;;;4842999;29;20436;-87
2023/04/29 09:57:06;;;;;;;9.23;4.85;;;15.30;73.10;;;;;;4856771;29;20506;-90
2023/04/29 09:59:36;;;;;;;7.18;3.40;;;15.50;74.30;;;;;;4840272;29;20918;-86
2023/04/29 10:02:14;;;;;;;5.67;2.60;;;15.50;90.70;;;;;;4854673;29;21033;-87
2023/04/29 10:04:41;;;;;;;5.35;2.92;;;15.80;70.20;;;;;;4856763;29;20480;-87
2023/04/29 10:07:08;;;;;;;7.63;3.40;;;16.40;66.00;;;;;;4853979;29;20973;-87
2023/04/29 10:09:36;;;;;;;6.35;3.38;;;16.70;72.30;;;;;;4873048;29;20497;-91
2023/04/29 10:12:06;;;;;;;5.22;2.88;;;17.10;65.30;;;;;;4854758;29;20438;-86
2023/04/29 10:14:42;;;;;;;6.28;2.72;;;17.30;58.10;;;;;;4840668;29;20829;-89
2023/04/29 10:17:19;;;;;;;4.18;1.45;;;17.70;66.60;;;;;;4872730;29;20472;-86
2023/04/29 10:20:07;;;;;;;2.88;1.48;;;17.90;54.40;;;;;;4854158;29;20437;-85
2023/04/29 10:22:45;;;;;;;4.03;1.50;;;17.90;49.10;;;;;;4856136;29;20489;-87
2023/04/29 10:25:13;;;;;;;4.57;1.80;;;18.00;54.20;;;;;;4854661;29;20492;-86
2023/04/29 10:27:43;;;;;;;5.60;2.07;;;18.20;55.00;;;;;;4855174;29;20910;-87
2023/04/29 10:30:13;;;;;;;3.85;1.88;;;18.10;50.60;;;;;;4855809;29;20452;-87
2023/04/29 10:32:45;;;;;;;4.97;2.03;;;18.20;52.00;;;;;;4853303;29;20515;-88
2023/04/29 10:35:13;;;;;;;4.28;2.30;;;18.30;52.70;;;;;;4872559;29;20421;-87
2023/04/29 10:37:47;;;;;;;2.55;1.55;;;18.40;51.00;;;;;;4853666;29;20425;-88
2023/04/29 10:40:38;;;;;;;4.53;1.70;;;18.50;50.10;;;;;;4856116;29;20935;-87
2023/04/29 10:43:05;;;;;;;3.63;1.42;;;18.90;52.00;;;;;;4840389;29;20446;-87
2023/04/29 10:45:34;;;;;;;3.83;1.00;;;19.30;48.00;;;;;;4838046;29;20440;-86
2023/04/29 10:48:04;;;;;;;3.47;1.30;;;19.80;49.70;;;;;;4855732;29;20918;-89
2023/04/29 10:50:45;;;;;;;4.75;1.48;;;19.90;45.10;;;;;;4853318;29;20452;-89
2023/04/29 10:53:13;;;;;;;2.22;0.98;;;19.80;45.30;;;;;;4837050;29;20951;-86
2023/04/29 10:55:39;;;;;;;2.90;1.37;;;20.00;48.80;;;;;;4835835;29;20506;-87
2023/04/29 10:58:05;;;;;;;4.38;1.55;;;20.10;42.30;;;;;;4836349;29;20474;-87
2023/04/29 11:00:33;;;;;;;3.85;1.85;;;20.00;48.00;;;;;;4837246;29;20867;-87
2023/04/29 11:03:03;;;;;;;4.05;1.50;;;19.70;45.10;;;;;;4835229;29;20519;-85
2023/04/29 11:05:35;;;;;;;2.92;1.80;;;19.40;43.90;;;;;;4837409;29;20440;-88
2023/04/29 11:08:21;;;;;;;3.35;1.23;;;18.70;51.70;;;;;;4819632;29;20505;-86
2023/04/29 11:10:47;;;;;;;3.10;0.90;;;18.40;44.50;;;;;;4836208;29;20490;-87
2023/04/29 11:13:28;;;;;;;4.30;1.30;;;18.10;47.90;;;;;;4821449;29;20613;-86
2023/04/29 11:16:07;;;;;;;4.20;1.38;;;17.80;48.30;;;;;;4819775;29;20438;-86
2023/04/29 11:18:34;;;;;;;3.00;1.35;;;17.60;52.70;;;;;;4841382;29;20469;-87
2023/04/29 11:21:05;;;;;;;3.87;1.47;;;17.40;51.30;;;;;;4825563;29;20469;-87
2023/04/29 11:23:35;;;;;;;4.75;1.48;;;17.50;50.90;;;;;;4843021;29;20586;-86
2023/04/29 11:26:02;;;;;;;2.70;1.20;;;17.30;52.20;;;;;;4842576;29;20422;-86
2023/04/29 11:28:30;;;;;;;3.55;1.23;;;17.40;55.70;;;;;;4841602;29;20511;-89
2023/04/29 11:30:59;;;;;;;4.32;1.50;;;17.70;52.60;;;;;;4827652;29;20497;-88
2023/04/29 11:33:28;;;;;;;3.90;1.20;;;18.10;57.10;;;;;;4825807;29;20418;-86
2023/04/29 11:35:54;;;;;;;3.72;1.20;;;18.90;54.20;;;;;;4843107;29;20418;-86
2023/04/29 11:38:25;;;;;;;3.75;1.40;;;19.20;54.50;;;;;;4840464;29;20932;-87
2023/04/29 11:40:51;;;;;;;3.78;1.38;;;19.30;46.40;;;;;;4827114;29;20441;-87
2023/04/29 11:43:17;;;;;;;4.82;1.20;;;19.20;52.10;;;;;;4841743;29;20429;-87
2023/04/29 11:45:46;;;;;;;2.80;1.10;;;19.30;46.00;;;;;;4858231;29;20559;-86
2023/04/29 11:48:23;;;;;;;3.78;1.17;;;19.30;46.60;;;;;;4842415;29;20438;-86
2023/04/29 11:50:55;;;;;;;4.32;1.40;;;19.50;48.50;;;;;;4826495;29;20449;-87
2023/04/29 11:53:24;;;;;;;3.03;1.20;;;19.80;50.60;;;;;;4861007;29;20424;-87
2023/04/29 11:55:51;;;;;;;3.93;1.00;;;19.70;48.40;;;;;;4859138;29;20512;-87
2023/04/29 11:58:19;;;;;;;3.33;1.27;;;19.80;40.50;;;;;;4860879;29;20436;-86
2023/04/29 12:00:47;;;;;;;3.40;1.07;;;19.90;46.40;;;;;;4860608;29;20429;-86
2023/04/29 12:03:17;;;;;;;2.55;0.88;;;19.90;45.70;;;;;;4859480;29;20439;-87
2023/04/29 12:05:47;;;;;;;2.92;0.90;;;19.70;39.30;;;;;;4846121;29;20451;-89
2023/04/29 12:08:13;;;;;;;2.65;0.60;;;19.60;40.70;;;;;;4875730;29;20802;-86
2023/04/29 12:10:39;;;;;;;4.72;0.80;;;19.60;43.00;;;;;;4860783;29;20455;-89
2023/04/29 12:13:05;;;;;;;2.42;0.80;;;20.00;46.50;;;;;;4858674;29;20452;-87
2023/04/29 12:15:31;;;;;;;2.67;0.87;;;20.60;46.10;;;;;;4860602;29;20420;-88
2023/04/29 12:17:58;;;;;;;2.70;0.60;;;21.20;42.90;;;;;;4876664;29;20934;-87
2023/04/29 12:20:25;;;;;;;2.17;0.60;;;21.80;45.80;;;;;;4859613;29;20429;-87
2023/04/29 12:22:52;;;;;;;2.13;0.60;;;22.10;38.70;;;;;;4877720;29;20774;-89
2023/04/29 12:25:17;;;;;;;2.35;0.50;;;21.90;34.80;;;;;;4843665;29;20427;-88
2023/04/29 12:27:43;;;;;;;1.98;0.65;;;21.30;35.00;;;;;;4860873;29;20521;-86
2023/04/29 12:30:10;;;;;;;2.23;0.50;;;21.00;35.00;;;;;;4856051;29;20453;-86
2023/04/29 12:32:37;;;;;;;2.25;0.50;;;21.20;43.40;;;;;;4858372;29;20476;-88
2023/04/29 12:35:03;;;;;;;2.38;0.40;;;21.80;40.20;;;;;;4856245;29;20485;-86
2023/04/29 12:37:29;;;;;;;1.55;0.43;;;21.70;38.00;;;;;;4841721;29;20429;-87
2023/04/29 12:39:54;;;;;;;1.70;0.45;;;21.50;40.00;;;;;;4857413;29;20437;-88
2023/04/29 12:42:20;;;;;;;1.83;0.60;;;21.50;39.60;;;;;;4855559;29;20986;-88
2023/04/29 12:44:47;;;;;;;2.25;0.50;;;21.20;37.30;;;;;;4842626;29;20468;-86